RJOP weather

Komatsushima Heliport
Komatsushima, Tokushima Prefecture, Japan

Public forecast

Using degrees Celsius for public forecast. Weather courtesy of forecast.io.

Current aviation weather report (METAR) for Komatsushima Heliport

Report is more than 6 hours old.

Retrieved 2019/10/19 11:46 UTC (2 days ago):

RJOP 191146Z 36013KT 330V030 9999 FEW025 BKN070 23/19 Q1016 RMK 2CU025 7AC070 A3002

Closest aviation forecast (TAF) to Komatsushima Heliport

Closest forecast is Takamatsu Airport, 32.8 nm (60.8 km) WNW. Retrieved 2019/10/21 06:30 UTC (37 minutes ago):

TAF TAF RJOT 210514Z 2106/2212 07009KT 8000 -RA FEW008 SCT015 BKN025 TEMPO 2106/2113 4000 -RA BR FEW003 BKN008 BKN015 BECMG 2118/2121 28008KT